FRA weather

Frankfurt am Main International Airport
Frankfurt-am-Main, Hesse, Germany

Public forecast

Using degrees Celsius for public forecast. Weather courtesy of forecast.io.

METAR (pilot weather report)

Retrieved 2017/02/24 14:20 UTC (26 minutes ago):

EDDF 241420Z 28007KT 240V320 9999 VCSH SCT048 BKN060 08/M04 Q1014 NOSIG

TAF (pilot weather forecast)

Retrieved 2017/02/24 12:28 UTC (2 hours ago):

TAF EDDF 241100Z 2412/2518 30010G20KT 9999 SCT040 BECMG 2414/2416 30007KT BECMG 2416/2419 23004KT TEMPO 2510/2517 21009KT